AAL1413 KRDU-KMIA
Flight info
| Callsign | AAL1413 |
|---|---|
| Flight time | 1h 34m |
| Altitude | 37000 |
| Route | ROZBO5 ROZBO GARIC/N0477F380 SPOOF Y313 HOAGG BNFSH2 |
| Aircraft | B77W/H-SDE1E2E3FGHIJ2J3J4J5M1RWXY/LB1D1 |
Departure
| Time | 2026-05-07 00:14 |
|---|---|
| Airport | Raleigh-Durham International Airport (KRDU) |
Arrival
| Time | 2026-05-07 01:48 |
|---|---|
| Airport | Miami International Airport (KMIA) |
| Time | Latitude | Longitude | Altitude | Speed | Heading |
|---|---|---|---|---|---|
| 2026-05-06 23:30 | 35.87986 | -78.79135 | 392 ft | 0 kts | 185° |
| 2026-05-06 23:55 | 35.88000 | -78.79134 | 392 ft | 2 kts | 172° |
| 2026-05-06 23:55 | 35.88015 | -78.79141 | 392 ft | 2 kts | 132° |
| 2026-05-06 23:56 | 35.88021 | -78.79152 | 393 ft | 2 kts | 109° |
| 2026-05-06 23:56 | 35.88024 | -78.79172 | 393 ft | 2 kts | 88° |
| 2026-05-06 23:56 | 35.88022 | -78.79192 | 392 ft | 2 kts | 52° |
| 2026-05-06 23:56 | 35.88021 | -78.79194 | 393 ft | 0 kts | 52° |
| 2026-05-07 00:01 | 35.88021 | -78.79193 | 393 ft | 1 kts | 52° |
| 2026-05-07 00:01 | 35.88033 | -78.79177 | 387 ft | 8 kts | 48° |
| 2026-05-07 00:01 | 35.88070 | -78.79130 | 395 ft | 7 kts | 45° |
| 2026-05-07 00:01 | 35.88085 | -78.79112 | 393 ft | 0 kts | 45° |
| 2026-05-07 00:02 | 35.88088 | -78.79108 | 393 ft | 5 kts | 45° |
| 2026-05-07 00:03 | 35.88129 | -78.79015 | 392 ft | 14 kts | 94° |
| 2026-05-07 00:03 | 35.88069 | -78.78917 | 393 ft | 16 kts | 138° |
| 2026-05-07 00:03 | 35.87977 | -78.78814 | 402 ft | 21 kts | 143° |
| 2026-05-07 00:03 | 35.87850 | -78.78725 | 417 ft | 23 kts | 156° |
| 2026-05-07 00:04 | 35.87761 | -78.78654 | 423 ft | 0 kts | 136° |
| 2026-05-07 00:05 | 35.87754 | -78.78646 | 426 ft | 4 kts | 136° |
| 2026-05-07 00:05 | 35.87749 | -78.78639 | 422 ft | 3 kts | 136° |
| 2026-05-07 00:06 | 35.87744 | -78.78634 | 425 ft | 0 kts | 136° |
| 2026-05-07 00:06 | 35.87741 | -78.78631 | 426 ft | 3 kts | 136° |
| 2026-05-07 00:06 | 35.87738 | -78.78626 | 428 ft | 0 kts | 136° |
| 2026-05-07 00:07 | 35.87723 | -78.78608 | 428 ft | 5 kts | 136° |
| 2026-05-07 00:07 | 35.87695 | -78.78576 | 428 ft | 5 kts | 136° |
| 2026-05-07 00:07 | 35.87668 | -78.78543 | 426 ft | 6 kts | 133° |
| 2026-05-07 00:08 | 35.87651 | -78.78500 | 428 ft | 6 kts | 102° |
| 2026-05-07 00:08 | 35.87664 | -78.78445 | 427 ft | 9 kts | 58° |
| 2026-05-07 00:08 | 35.87722 | -78.78378 | 426 ft | 13 kts | 43° |
| 2026-05-07 00:08 | 35.87784 | -78.78302 | 425 ft | 13 kts | 46° |
| 2026-05-07 00:09 | 35.87845 | -78.78224 | 427 ft | 13 kts | 46° |
| 2026-05-07 00:09 | 35.87867 | -78.78196 | 426 ft | 0 kts | 46° |
| 2026-05-07 00:09 | 35.87868 | -78.78195 | 426 ft | 0 kts | 46° |
| 2026-05-07 00:10 | 35.87877 | -78.78184 | 428 ft | 3 kts | 45° |
| 2026-05-07 00:10 | 35.87899 | -78.78157 | 430 ft | 6 kts | 45° |
| 2026-05-07 00:10 | 35.87929 | -78.78120 | 428 ft | 6 kts | 45° |
| 2026-05-07 00:10 | 35.87942 | -78.78104 | 428 ft | 0 kts | 45° |
| 2026-05-07 00:11 | 35.87944 | -78.78102 | 428 ft | 0 kts | 45° |
| 2026-05-07 00:11 | 35.87945 | -78.78100 | 428 ft | 1 kts | 45° |
| 2026-05-07 00:11 | 35.87949 | -78.78095 | 430 ft | 1 kts | 45° |
| 2026-05-07 00:11 | 35.87953 | -78.78091 | 437 ft | 1 kts | 46° |
| 2026-05-07 00:12 | 35.87954 | -78.78089 | 437 ft | 1 kts | 46° |
| 2026-05-07 00:12 | 35.87958 | -78.78083 | 431 ft | 4 kts | 48° |
| 2026-05-07 00:12 | 35.87961 | -78.78013 | 448 ft | 11 kts | 118° |
| 2026-05-07 00:12 | 35.87905 | -78.77977 | 447 ft | 10 kts | 186° |
| 2026-05-07 00:13 | 35.87882 | -78.77991 | 429 ft | 0 kts | 223° |
| 2026-05-07 00:13 | 35.87837 | -78.78044 | 431 ft | 49 kts | 225° |
| 2026-05-07 00:14 | 35.87281 | -78.78725 | 428 ft | 173 kts | 224° |
| 2026-05-07 00:14 | 35.86224 | -78.79995 | 1112 ft | 234 kts | 225° |
| 2026-05-07 00:14 | 35.85019 | -78.81234 | 3147 ft | 212 kts | 217° |
| 2026-05-07 00:14 | 35.83710 | -78.82124 | 4104 ft | 230 kts | 207° |
| 2026-05-07 00:15 | 35.82176 | -78.82886 | 4261 ft | 242 kts | 206° |
| 2026-05-07 00:15 | 35.80585 | -78.83665 | 4542 ft | 250 kts | 207° |
| 2026-05-07 00:15 | 35.78942 | -78.84459 | 5465 ft | 256 kts | 207° |
| 2026-05-07 00:15 | 35.77265 | -78.85252 | 6524 ft | 260 kts | 207° |
| 2026-05-07 00:16 | 35.75562 | -78.86046 | 7234 ft | 263 kts | 206° |
| 2026-05-07 00:16 | 35.73845 | -78.86845 | 7599 ft | 266 kts | 206° |
| 2026-05-07 00:16 | 35.72100 | -78.87652 | 7590 ft | 271 kts | 206° |
| 2026-05-07 00:16 | 35.70346 | -78.88463 | 7585 ft | 269 kts | 206° |
| 2026-05-07 00:17 | 35.68569 | -78.89196 | 7591 ft | 268 kts | 202° |
| 2026-05-07 00:17 | 35.66888 | -78.89755 | 7593 ft | 269 kts | 200° |
| 2026-05-07 00:17 | 35.64999 | -78.89912 | 7589 ft | 279 kts | 176° |
| 2026-05-07 00:17 | 35.63152 | -78.89006 | 7599 ft | 294 kts | 153° |
| 2026-05-07 00:18 | 35.61631 | -78.87267 | 7671 ft | 306 kts | 133° |
| 2026-05-07 00:18 | 35.60341 | -78.85162 | 8165 ft | 311 kts | 131° |
| 2026-05-07 00:18 | 35.59051 | -78.83016 | 9184 ft | 315 kts | 131° |
| 2026-05-07 00:18 | 35.57733 | -78.80832 | 10225 ft | 319 kts | 131° |
| 2026-05-07 00:19 | 35.56393 | -78.78636 | 10897 ft | 336 kts | 131° |
| 2026-05-07 00:19 | 35.54917 | -78.76245 | 11167 ft | 367 kts | 131° |
| 2026-05-07 00:19 | 35.53326 | -78.73687 | 11490 ft | 390 kts | 133° |
| 2026-05-07 00:19 | 35.51286 | -78.71396 | 11990 ft | 392 kts | 153° |
| 2026-05-07 00:20 | 35.48815 | -78.70171 | 11998 ft | 382 kts | 175° |
| 2026-05-07 00:20 | 35.46215 | -78.69802 | 12020 ft | 376 kts | 180° |
| 2026-05-07 00:20 | 35.43572 | -78.69463 | 12015 ft | 377 kts | 179° |
| 2026-05-07 00:20 | 35.41084 | -78.69130 | 12002 ft | 377 kts | 179° |
| 2026-05-07 00:21 | 35.38475 | -78.68773 | 12043 ft | 376 kts | 179° |
| 2026-05-07 00:21 | 35.35855 | -78.68411 | 12543 ft | 383 kts | 179° |
| 2026-05-07 00:21 | 35.33180 | -78.68038 | 13607 ft | 386 kts | 179° |
| 2026-05-07 00:21 | 35.30488 | -78.67657 | 14580 ft | 391 kts | 179° |
| 2026-05-07 00:22 | 35.27775 | -78.67273 | 15455 ft | 398 kts | 179° |
| 2026-05-07 00:22 | 35.24991 | -78.66877 | 16333 ft | 405 kts | 179° |
| 2026-05-07 00:22 | 35.22164 | -78.66475 | 17202 ft | 411 kts | 179° |
| 2026-05-07 00:22 | 35.19333 | -78.66071 | 18068 ft | 418 kts | 179° |
| 2026-05-07 00:23 | 35.16423 | -78.65656 | 18824 ft | 424 kts | 179° |
| 2026-05-07 00:23 | 35.13466 | -78.65234 | 19579 ft | 429 kts | 179° |
| 2026-05-07 00:23 | 35.10465 | -78.64805 | 20385 ft | 434 kts | 179° |
| 2026-05-07 00:23 | 35.07444 | -78.64374 | 21173 ft | 439 kts | 179° |
| 2026-05-07 00:24 | 35.04426 | -78.63943 | 21914 ft | 444 kts | 179° |
| 2026-05-07 00:24 | 35.01336 | -78.63504 | 22646 ft | 450 kts | 179° |
| 2026-05-07 00:24 | 34.98201 | -78.63059 | 23354 ft | 455 kts | 179° |
| 2026-05-07 00:24 | 34.95043 | -78.62405 | 23955 ft | 468 kts | 169° |
| 2026-05-07 00:25 | 34.92007 | -78.60838 | 24547 ft | 478 kts | 159° |
| 2026-05-07 00:25 | 34.89032 | -78.58985 | 25152 ft | 482 kts | 157° |
| 2026-05-07 00:25 | 34.86044 | -78.57075 | 25785 ft | 486 kts | 157° |
| 2026-05-07 00:25 | 34.83036 | -78.55162 | 26417 ft | 488 kts | 158° |
| 2026-05-07 00:26 | 34.80007 | -78.53267 | 27039 ft | 491 kts | 158° |
| 2026-05-07 00:26 | 34.76981 | -78.51406 | 27609 ft | 494 kts | 158° |
| 2026-05-07 00:26 | 34.73928 | -78.49554 | 28168 ft | 498 kts | 159° |
| 2026-05-07 00:26 | 34.70802 | -78.47673 | 28701 ft | 502 kts | 159° |
| 2026-05-07 00:27 | 34.67652 | -78.45784 | 29224 ft | 505 kts | 159° |
| 2026-05-07 00:27 | 34.64494 | -78.43894 | 29732 ft | 509 kts | 159° |
| 2026-05-07 00:27 | 34.61292 | -78.41977 | 30194 ft | 512 kts | 159° |
| 2026-05-07 00:27 | 34.58084 | -78.40056 | 30532 ft | 516 kts | 159° |
| 2026-05-07 00:28 | 34.54843 | -78.38116 | 30870 ft | 520 kts | 159° |
| 2026-05-07 00:28 | 34.51618 | -78.36185 | 31276 ft | 521 kts | 159° |
| 2026-05-07 00:28 | 34.48354 | -78.34231 | 31735 ft | 522 kts | 159° |
| 2026-05-07 00:28 | 34.45100 | -78.32285 | 32200 ft | 522 kts | 160° |
| 2026-05-07 00:29 | 34.41837 | -78.30336 | 32638 ft | 522 kts | 160° |
| 2026-05-07 00:29 | 34.38617 | -78.28415 | 33057 ft | 523 kts | 160° |
| 2026-05-07 00:30 | 34.28814 | -78.22577 | 34325 ft | 524 kts | 161° |
| 2026-05-07 00:30 | 34.25525 | -78.20624 | 34612 ft | 526 kts | 161° |
| 2026-05-07 00:30 | 34.22240 | -78.18675 | 34902 ft | 528 kts | 161° |
| 2026-05-07 00:30 | 34.18919 | -78.16705 | 35220 ft | 530 kts | 161° |
| 2026-05-07 00:31 | 34.15647 | -78.14766 | 35515 ft | 531 kts | 161° |
| 2026-05-07 00:31 | 34.12315 | -78.12792 | 35820 ft | 533 kts | 162° |
| 2026-05-07 00:31 | 34.08986 | -78.10821 | 36104 ft | 534 kts | 162° |
| 2026-05-07 00:31 | 34.05633 | -78.08838 | 36394 ft | 536 kts | 162° |
| 2026-05-07 00:32 | 34.02285 | -78.06859 | 36669 ft | 537 kts | 162° |
| 2026-05-07 00:32 | 33.98910 | -78.04866 | 36914 ft | 540 kts | 162° |
| 2026-05-07 00:32 | 33.92110 | -78.00936 | 37014 ft | 543 kts | 166° |
| 2026-05-07 00:33 | 33.88580 | -77.99431 | 37012 ft | 531 kts | 174° |
| 2026-05-07 00:33 | 33.85037 | -77.98379 | 37011 ft | 521 kts | 179° |
| 2026-05-07 00:33 | 33.81485 | -77.97691 | 37009 ft | 509 kts | 185° |
| 2026-05-07 00:33 | 33.77990 | -77.97424 | 37018 ft | 503 kts | 188° |
| 2026-05-07 00:34 | 33.70991 | -77.97035 | 37025 ft | 502 kts | 188° |
| 2026-05-07 00:34 | 33.64035 | -77.96623 | 37026 ft | 503 kts | 188° |
| 2026-05-07 00:35 | 33.57028 | -77.96166 | 37027 ft | 505 kts | 188° |
| 2026-05-07 00:35 | 33.49980 | -77.95692 | 37040 ft | 506 kts | 188° |
| 2026-05-07 00:36 | 33.42972 | -77.95220 | 37028 ft | 507 kts | 188° |
| 2026-05-07 00:36 | 33.35915 | -77.94749 | 37046 ft | 508 kts | 188° |
| 2026-05-07 00:37 | 33.28833 | -77.94277 | 37023 ft | 509 kts | 187° |
| 2026-05-07 00:37 | 33.21790 | -77.93809 | 37042 ft | 509 kts | 187° |
| 2026-05-07 00:38 | 33.14723 | -77.93340 | 37045 ft | 509 kts | 187° |
| 2026-05-07 00:38 | 33.07632 | -77.92869 | 37046 ft | 509 kts | 187° |
| 2026-05-07 00:39 | 33.00543 | -77.92401 | 37047 ft | 509 kts | 187° |
| 2026-05-07 00:39 | 32.93515 | -77.91937 | 37052 ft | 509 kts | 187° |
| 2026-05-07 00:40 | 32.86437 | -77.91470 | 37054 ft | 508 kts | 187° |
| 2026-05-07 00:40 | 32.79364 | -77.91005 | 37055 ft | 509 kts | 187° |
| 2026-05-07 00:41 | 32.72290 | -77.90546 | 37058 ft | 508 kts | 188° |
| 2026-05-07 00:41 | 32.65377 | -77.91009 | 37066 ft | 490 kts | 199° |
| 2026-05-07 00:42 | 32.58878 | -77.92758 | 37069 ft | 478 kts | 207° |
| 2026-05-07 00:42 | 32.52461 | -77.94899 | 37066 ft | 479 kts | 207° |
| 2026-05-07 00:43 | 32.46025 | -77.97026 | 37064 ft | 480 kts | 206° |
| 2026-05-07 00:43 | 32.40664 | -77.98769 | 37070 ft | 481 kts | 206° |
| 2026-05-07 00:44 | 32.34201 | -78.00854 | 37072 ft | 481 kts | 206° |
| 2026-05-07 00:44 | 32.27719 | -78.02939 | 37073 ft | 482 kts | 206° |
| 2026-05-07 00:45 | 32.21250 | -78.05020 | 37071 ft | 482 kts | 206° |
| 2026-05-07 00:45 | 32.14773 | -78.07101 | 37078 ft | 482 kts | 206° |
| 2026-05-07 00:46 | 32.08344 | -78.09164 | 37073 ft | 482 kts | 206° |
| 2026-05-07 00:46 | 32.01866 | -78.11239 | 37075 ft | 482 kts | 205° |
| 2026-05-07 00:47 | 31.95395 | -78.13310 | 37077 ft | 482 kts | 205° |
| 2026-05-07 00:47 | 31.88915 | -78.15380 | 37083 ft | 483 kts | 205° |
| 2026-05-07 00:48 | 31.82418 | -78.17453 | 37084 ft | 483 kts | 205° |
| 2026-05-07 00:48 | 31.75965 | -78.19509 | 37083 ft | 484 kts | 205° |
| 2026-05-07 00:49 | 31.69466 | -78.21576 | 37090 ft | 484 kts | 205° |
| 2026-05-07 00:49 | 31.62950 | -78.23645 | 37091 ft | 485 kts | 205° |
| 2026-05-07 00:50 | 31.56440 | -78.25710 | 37085 ft | 485 kts | 205° |
| 2026-05-07 00:50 | 31.49923 | -78.27774 | 37089 ft | 485 kts | 205° |
| 2026-05-07 00:51 | 31.43413 | -78.29863 | 37096 ft | 484 kts | 206° |
| 2026-05-07 00:51 | 31.36927 | -78.32043 | 37091 ft | 483 kts | 206° |
| 2026-05-07 00:52 | 31.30503 | -78.34215 | 37096 ft | 484 kts | 206° |
| 2026-05-07 00:52 | 31.24032 | -78.36386 | 37098 ft | 484 kts | 206° |
| 2026-05-07 00:53 | 31.17552 | -78.38549 | 37095 ft | 484 kts | 205° |
| 2026-05-07 00:53 | 31.11063 | -78.40710 | 37097 ft | 484 kts | 205° |
| 2026-05-07 00:54 | 31.04578 | -78.42867 | 37098 ft | 484 kts | 205° |
| 2026-05-07 00:54 | 30.98087 | -78.45024 | 37095 ft | 484 kts | 205° |
| 2026-05-07 00:55 | 30.91636 | -78.47164 | 37095 ft | 485 kts | 205° |
| 2026-05-07 00:55 | 30.85136 | -78.49317 | 37100 ft | 485 kts | 205° |
| 2026-05-07 00:56 | 30.78641 | -78.51466 | 37098 ft | 485 kts | 205° |
| 2026-05-07 00:56 | 30.72187 | -78.53598 | 37101 ft | 485 kts | 205° |
| 2026-05-07 00:57 | 30.65702 | -78.55738 | 37101 ft | 484 kts | 205° |
| 2026-05-07 00:57 | 30.59217 | -78.57874 | 37098 ft | 484 kts | 204° |
| 2026-05-07 00:58 | 30.52764 | -78.59997 | 37102 ft | 484 kts | 204° |
| 2026-05-07 00:58 | 30.46288 | -78.62125 | 37107 ft | 483 kts | 204° |
| 2026-05-07 00:59 | 30.36580 | -78.65309 | 37106 ft | 483 kts | 204° |
| 2026-05-07 01:00 | 30.30117 | -78.67426 | 37106 ft | 483 kts | 204° |
| 2026-05-07 01:00 | 30.23653 | -78.69541 | 37110 ft | 482 kts | 204° |
| 2026-05-07 01:01 | 30.17196 | -78.71650 | 37106 ft | 482 kts | 204° |
| 2026-05-07 01:01 | 30.10735 | -78.73762 | 37102 ft | 482 kts | 204° |
| 2026-05-07 01:02 | 30.04278 | -78.75872 | 37103 ft | 482 kts | 204° |
| 2026-05-07 01:02 | 29.97886 | -78.77958 | 37105 ft | 482 kts | 204° |
| 2026-05-07 01:03 | 29.91402 | -78.80071 | 37108 ft | 482 kts | 204° |
| 2026-05-07 01:03 | 29.84927 | -78.82178 | 37098 ft | 483 kts | 204° |
| 2026-05-07 01:04 | 29.78454 | -78.84282 | 37102 ft | 483 kts | 204° |
| 2026-05-07 01:04 | 29.71976 | -78.86386 | 37118 ft | 484 kts | 204° |
| 2026-05-07 01:05 | 29.65494 | -78.88492 | 37101 ft | 484 kts | 204° |
| 2026-05-07 01:05 | 29.59045 | -78.90588 | 37110 ft | 484 kts | 204° |
| 2026-05-07 01:06 | 29.52553 | -78.92698 | 37105 ft | 485 kts | 204° |
| 2026-05-07 01:06 | 29.46048 | -78.94812 | 37107 ft | 485 kts | 204° |
| 2026-05-07 01:07 | 29.39555 | -78.96922 | 37102 ft | 485 kts | 204° |
| 2026-05-07 01:07 | 29.33052 | -78.99036 | 37104 ft | 485 kts | 204° |
| 2026-05-07 01:08 | 29.26559 | -79.01145 | 37104 ft | 485 kts | 204° |
| 2026-05-07 01:08 | 29.20069 | -79.03253 | 37106 ft | 485 kts | 204° |
| 2026-05-07 01:09 | 29.13610 | -79.05351 | 37105 ft | 485 kts | 204° |
| 2026-05-07 01:09 | 29.07118 | -79.07459 | 37104 ft | 485 kts | 204° |
| 2026-05-07 01:10 | 29.00618 | -79.09569 | 37104 ft | 485 kts | 203° |
| 2026-05-07 01:10 | 28.94114 | -79.11681 | 37099 ft | 486 kts | 203° |
| 2026-05-07 01:11 | 28.87608 | -79.13793 | 37099 ft | 486 kts | 203° |
| 2026-05-07 01:11 | 28.81105 | -79.15904 | 37105 ft | 486 kts | 203° |
| 2026-05-07 01:12 | 28.74605 | -79.18014 | 37101 ft | 486 kts | 203° |
| 2026-05-07 01:12 | 28.68128 | -79.20116 | 37105 ft | 486 kts | 203° |
| 2026-05-07 01:13 | 28.61658 | -79.22295 | 37098 ft | 485 kts | 204° |
| 2026-05-07 01:13 | 28.55206 | -79.24548 | 37101 ft | 485 kts | 204° |
| 2026-05-07 01:14 | 28.48740 | -79.26736 | 37098 ft | 488 kts | 200° |
| 2026-05-07 01:14 | 28.41934 | -79.27909 | 37108 ft | 496 kts | 193° |
| 2026-05-07 01:15 | 28.35060 | -79.28711 | 37103 ft | 497 kts | 192° |
| 2026-05-07 01:15 | 28.28178 | -79.29538 | 37103 ft | 497 kts | 193° |
| 2026-05-07 01:16 | 28.21309 | -79.30402 | 37103 ft | 496 kts | 193° |
| 2026-05-07 01:16 | 28.14487 | -79.31273 | 37101 ft | 496 kts | 193° |
| 2026-05-07 01:17 | 28.07590 | -79.32152 | 37104 ft | 496 kts | 193° |
| 2026-05-07 01:17 | 28.00769 | -79.33019 | 37107 ft | 496 kts | 193° |
| 2026-05-07 01:18 | 27.93901 | -79.33889 | 37105 ft | 497 kts | 192° |
| 2026-05-07 01:18 | 27.87016 | -79.34760 | 37094 ft | 497 kts | 192° |
| 2026-05-07 01:19 | 27.80137 | -79.35629 | 37094 ft | 497 kts | 192° |
| 2026-05-07 01:19 | 27.73249 | -79.36498 | 37092 ft | 497 kts | 192° |
| 2026-05-07 01:19 | 27.69809 | -79.36932 | 36853 ft | 500 kts | 192° |
| 2026-05-07 01:20 | 27.66378 | -79.37367 | 36092 ft | 502 kts | 192° |
| 2026-05-07 01:20 | 27.62917 | -79.37802 | 35555 ft | 498 kts | 192° |
| 2026-05-07 01:20 | 27.59492 | -79.38230 | 35065 ft | 494 kts | 192° |
| 2026-05-07 01:20 | 27.56084 | -79.38656 | 34560 ft | 490 kts | 192° |
| 2026-05-07 01:21 | 27.52713 | -79.39079 | 34052 ft | 487 kts | 192° |
| 2026-05-07 01:21 | 27.49345 | -79.39502 | 33499 ft | 483 kts | 192° |
| 2026-05-07 01:21 | 27.46023 | -79.39920 | 32989 ft | 479 kts | 192° |
| 2026-05-07 01:21 | 27.42719 | -79.40335 | 32491 ft | 475 kts | 192° |
| 2026-05-07 01:22 | 27.39537 | -79.40734 | 32021 ft | 471 kts | 191° |
| 2026-05-07 01:22 | 27.36196 | -79.41154 | 31519 ft | 467 kts | 191° |
| 2026-05-07 01:22 | 27.32973 | -79.41558 | 31056 ft | 464 kts | 191° |
| 2026-05-07 01:22 | 27.29833 | -79.42026 | 30576 ft | 457 kts | 197° |
| 2026-05-07 01:23 | 27.26771 | -79.42982 | 30095 ft | 448 kts | 204° |
| 2026-05-07 01:23 | 27.23836 | -79.44128 | 29536 ft | 444 kts | 205° |
| 2026-05-07 01:23 | 27.20974 | -79.45282 | 29029 ft | 441 kts | 205° |
| 2026-05-07 01:23 | 27.18075 | -79.46419 | 28536 ft | 439 kts | 204° |
| 2026-05-07 01:24 | 27.15190 | -79.47510 | 28052 ft | 436 kts | 203° |
| 2026-05-07 01:24 | 27.12315 | -79.48568 | 27570 ft | 433 kts | 203° |
| 2026-05-07 01:24 | 27.09456 | -79.49609 | 27108 ft | 431 kts | 203° |
| 2026-05-07 01:24 | 27.06622 | -79.50640 | 26622 ft | 428 kts | 203° |
| 2026-05-07 01:25 | 27.03792 | -79.51671 | 26167 ft | 426 kts | 203° |
| 2026-05-07 01:25 | 27.00967 | -79.52700 | 25702 ft | 424 kts | 203° |
| 2026-05-07 01:25 | 26.98169 | -79.53719 | 25232 ft | 423 kts | 203° |
| 2026-05-07 01:25 | 26.95373 | -79.54738 | 24760 ft | 422 kts | 203° |
| 2026-05-07 01:26 | 26.92579 | -79.55756 | 24289 ft | 421 kts | 203° |
| 2026-05-07 01:26 | 26.89824 | -79.56758 | 23835 ft | 421 kts | 203° |
| 2026-05-07 01:26 | 26.87036 | -79.57769 | 23305 ft | 420 kts | 202° |
| 2026-05-07 01:26 | 26.84256 | -79.58773 | 22820 ft | 419 kts | 202° |
| 2026-05-07 01:27 | 26.81477 | -79.59773 | 22323 ft | 416 kts | 202° |
| 2026-05-07 01:27 | 26.78725 | -79.60764 | 21858 ft | 414 kts | 201° |
| 2026-05-07 01:27 | 26.75993 | -79.61748 | 21395 ft | 412 kts | 201° |
| 2026-05-07 01:27 | 26.73266 | -79.62730 | 20934 ft | 410 kts | 201° |
| 2026-05-07 01:28 | 26.70561 | -79.63705 | 20476 ft | 408 kts | 201° |
| 2026-05-07 01:28 | 26.67864 | -79.64676 | 20020 ft | 406 kts | 201° |
| 2026-05-07 01:28 | 26.65173 | -79.65644 | 19553 ft | 405 kts | 200° |
| 2026-05-07 01:28 | 26.62491 | -79.66608 | 19087 ft | 404 kts | 200° |
| 2026-05-07 01:29 | 26.59851 | -79.67543 | 18625 ft | 403 kts | 199° |
| 2026-05-07 01:29 | 26.57138 | -79.68490 | 18116 ft | 403 kts | 199° |
| 2026-05-07 01:29 | 26.55363 | -79.69108 | 17778 ft | 402 kts | 199° |
| 2026-05-07 01:29 | 26.51809 | -79.70349 | 17141 ft | 399 kts | 199° |
| 2026-05-07 01:30 | 26.49192 | -79.71264 | 16672 ft | 397 kts | 198° |
| 2026-05-07 01:30 | 26.46599 | -79.72267 | 16198 ft | 390 kts | 207° |
| 2026-05-07 01:30 | 26.45078 | -79.73308 | 15968 ft | 384 kts | 221° |
| 2026-05-07 01:30 | 26.43247 | -79.75402 | 15762 ft | 372 kts | 231° |
| 2026-05-07 01:31 | 26.41010 | -79.78240 | 15424 ft | 362 kts | 230° |
| 2026-05-07 01:31 | 26.39331 | -79.80308 | 15187 ft | 358 kts | 229° |
| 2026-05-07 01:31 | 26.38212 | -79.81691 | 15024 ft | 356 kts | 231° |
| 2026-05-07 01:31 | 26.36730 | -79.83904 | 14734 ft | 356 kts | 238° |
| 2026-05-07 01:32 | 26.35360 | -79.86209 | 14499 ft | 355 kts | 238° |
| 2026-05-07 01:32 | 26.34001 | -79.88466 | 14253 ft | 350 kts | 237° |
| 2026-05-07 01:32 | 26.32631 | -79.90687 | 14011 ft | 344 kts | 237° |
| 2026-05-07 01:32 | 26.31277 | -79.92858 | 13773 ft | 339 kts | 237° |
| 2026-05-07 01:33 | 26.29952 | -79.94972 | 13528 ft | 333 kts | 237° |
| 2026-05-07 01:33 | 26.28636 | -79.97071 | 13301 ft | 328 kts | 236° |
| 2026-05-07 01:33 | 26.27339 | -79.99138 | 13086 ft | 325 kts | 236° |
| 2026-05-07 01:33 | 26.25970 | -80.01123 | 12839 ft | 320 kts | 223° |
| 2026-05-07 01:34 | 26.24098 | -80.02459 | 12661 ft | 322 kts | 199° |
| 2026-05-07 01:34 | 26.21926 | -80.03077 | 12473 ft | 324 kts | 190° |
| 2026-05-07 01:34 | 26.19703 | -80.03558 | 12252 ft | 326 kts | 189° |
| 2026-05-07 01:34 | 26.17483 | -80.04031 | 12038 ft | 325 kts | 189° |
| 2026-05-07 01:35 | 26.15278 | -80.04510 | 11809 ft | 324 kts | 190° |
| 2026-05-07 01:35 | 26.13077 | -80.05000 | 11592 ft | 323 kts | 190° |
| 2026-05-07 01:35 | 26.10874 | -80.05499 | 11381 ft | 321 kts | 190° |
| 2026-05-07 01:35 | 26.08686 | -80.05998 | 11170 ft | 320 kts | 190° |
| 2026-05-07 01:36 | 26.06573 | -80.06484 | 10945 ft | 318 kts | 191° |
| 2026-05-07 01:36 | 26.05454 | -80.06762 | 10809 ft | 318 kts | 191° |
| 2026-05-07 01:36 | 26.03345 | -80.07313 | 10553 ft | 317 kts | 192° |
| 2026-05-07 01:36 | 26.01219 | -80.07876 | 10295 ft | 314 kts | 192° |
| 2026-05-07 01:37 | 25.99797 | -80.08250 | 10119 ft | 312 kts | 192° |
| 2026-05-07 01:37 | 25.97875 | -80.08752 | 9873 ft | 309 kts | 191° |
| 2026-05-07 01:37 | 25.96518 | -80.09105 | 9689 ft | 307 kts | 192° |
| 2026-05-07 01:37 | 25.96288 | -80.09165 | 9653 ft | 306 kts | 192° |
| 2026-05-07 01:38 | 25.95734 | -80.09309 | 9577 ft | 305 kts | 192° |
| 2026-05-07 01:38 | 25.94414 | -80.09651 | 9407 ft | 303 kts | 192° |
| 2026-05-07 01:38 | 25.92506 | -80.10320 | 9133 ft | 296 kts | 208° |
| 2026-05-07 01:38 | 25.90942 | -80.11749 | 8920 ft | 289 kts | 228° |
| 2026-05-07 01:39 | 25.89612 | -80.13417 | 8705 ft | 289 kts | 229° |
| 2026-05-07 01:39 | 25.88377 | -80.15169 | 8435 ft | 285 kts | 244° |
| 2026-05-07 01:39 | 25.87860 | -80.17248 | 8222 ft | 282 kts | 267° |
| 2026-05-07 01:39 | 25.87802 | -80.19436 | 7969 ft | 283 kts | 270° |
| 2026-05-07 01:40 | 25.87763 | -80.21485 | 7634 ft | 286 kts | 271° |
| 2026-05-07 01:40 | 25.87974 | -80.23650 | 7333 ft | 279 kts | 284° |
| 2026-05-07 01:40 | 25.88469 | -80.25716 | 7119 ft | 274 kts | 288° |
| 2026-05-07 01:40 | 25.89002 | -80.27738 | 6863 ft | 271 kts | 288° |
| 2026-05-07 01:41 | 25.89517 | -80.29734 | 6598 ft | 270 kts | 287° |
| 2026-05-07 01:41 | 25.90013 | -80.31721 | 6301 ft | 269 kts | 287° |
| 2026-05-07 01:41 | 25.90498 | -80.33720 | 6028 ft | 266 kts | 286° |
| 2026-05-07 01:41 | 25.90970 | -80.35700 | 5791 ft | 261 kts | 286° |
| 2026-05-07 01:42 | 25.91374 | -80.37643 | 5405 ft | 258 kts | 277° |
| 2026-05-07 01:42 | 25.91436 | -80.39627 | 4898 ft | 255 kts | 281° |
| 2026-05-07 01:42 | 25.92071 | -80.41431 | 4682 ft | 246 kts | 297° |
| 2026-05-07 01:42 | 25.92557 | -80.43223 | 4495 ft | 242 kts | 272° |
| 2026-05-07 01:43 | 25.92232 | -80.44811 | 4365 ft | 227 kts | 244° |
| 2026-05-07 01:43 | 25.91387 | -80.45953 | 4228 ft | 213 kts | 220° |
| 2026-05-07 01:43 | 25.90930 | -80.46309 | 4191 ft | 209 kts | 212° |
| 2026-05-07 01:43 | 25.89789 | -80.46803 | 4069 ft | 201 kts | 193° |
| 2026-05-07 01:44 | 25.88445 | -80.46916 | 3901 ft | 187 kts | 175° |
| 2026-05-07 01:44 | 25.87451 | -80.46432 | 3551 ft | 182 kts | 134° |
| 2026-05-07 01:44 | 25.86963 | -80.45193 | 3174 ft | 177 kts | 106° |
| 2026-05-07 01:44 | 25.86563 | -80.43911 | 2818 ft | 176 kts | 114° |
| 2026-05-07 01:45 | 25.86056 | -80.42668 | 2550 ft | 176 kts | 116° |
| 2026-05-07 01:45 | 25.85577 | -80.41609 | 2332 ft | 171 kts | 118° |
| 2026-05-07 01:45 | 25.85054 | -80.40419 | 2115 ft | 171 kts | 116° |
| 2026-05-07 01:45 | 25.84516 | -80.39245 | 2083 ft | 172 kts | 119° |
| 2026-05-07 01:46 | 25.83931 | -80.38082 | 2026 ft | 173 kts | 120° |
| 2026-05-07 01:46 | 25.83332 | -80.36908 | 1813 ft | 169 kts | 120° |
| 2026-05-07 01:46 | 25.82794 | -80.35851 | 1782 ft | 147 kts | 120° |
| 2026-05-07 01:46 | 25.82396 | -80.35066 | 1615 ft | 142 kts | 119° |
| 2026-05-07 01:47 | 25.81969 | -80.34179 | 1321 ft | 139 kts | 118° |
| 2026-05-07 01:47 | 25.81526 | -80.33260 | 938 ft | 135 kts | 121° |
| 2026-05-07 01:47 | 25.81034 | -80.32365 | 743 ft | 134 kts | 121° |
| 2026-05-07 01:47 | 25.80558 | -80.31489 | 501 ft | 130 kts | 119° |
| 2026-05-07 01:48 | 25.80127 | -80.30618 | 239 ft | 130 kts | 119° |
| 2026-05-07 01:48 | 25.79694 | -80.29784 | 26 ft | 114 kts | 118° |
| 2026-05-07 01:48 | 25.79366 | -80.29130 | 19 ft | 77 kts | 119° |
| 2026-05-07 01:48 | 25.79177 | -80.28759 | 19 ft | 32 kts | 117° |
| 2026-05-07 01:49 | 25.79108 | -80.28584 | 19 ft | 26 kts | 103° |
| 2026-05-07 01:49 | 25.79122 | -80.28456 | 20 ft | 5 kts | 55° |
| 2026-05-07 01:49 | 25.79146 | -80.28429 | 20 ft | 5 kts | 39° |
| 2026-05-07 01:49 | 25.79197 | -80.28408 | 20 ft | 9 kts | 16° |
| 2026-05-07 01:50 | 25.79248 | -80.28371 | 20 ft | 9 kts | 44° |
| 2026-05-07 01:50 | 25.79298 | -80.28323 | 20 ft | 10 kts | 32° |
| 2026-05-07 01:50 | 25.79356 | -80.28281 | 20 ft | 10 kts | 33° |
| 2026-05-07 01:50 | 25.79422 | -80.28269 | 22 ft | 11 kts | 333° |
| 2026-05-07 01:51 | 25.79435 | -80.28289 | 20 ft | 1 kts | 294° |
| 2026-05-07 01:51 | 25.79439 | -80.28298 | 20 ft | 2 kts | 291° |
| 2026-05-07 01:51 | 25.79445 | -80.28317 | 20 ft | 3 kts | 290° |
| 2026-05-07 01:51 | 25.79447 | -80.28322 | 23 ft | 0 kts | 290° |